Denver, Colorado
Traffic Map
Current Weather Conditions
Denver, Colorado
Overcast
Overcast
16°
Feels Like: 16°
Wind Chill: 16° Ceiling: 7000
Heat Index: 16° Visibility: 10mi
Dew Point: 14° Wind: 0mph
Humidity: 89% Direction: ° ()
Pressure: 30.18in Gusts: 0mph
Raw Report DataKBKF 221058Z 00000KT 10SM OVC070 16/14 A3018 RMK AO2A SLP144 T01590141
Traffic Incident Summary
Active as of:
Severity:
Category:
InformationThere was an issue retrieving the traffic information for this location. Please try a different location or try again shortly.
Advertisements
Track Severe Weather on mobile